Barstow, California
Current Conditions -  °F | °C
As of 7:50 AM on Monday 26 Jan 2015 (Local Time) from KDAG Reporting Station
Broken Clouds Broken Clouds  
Wind Chill: 45°   Ceiling: 10000
Heat Index: 45°   Visibility: 10mi
Dew Point: 32°   Wind: 0mph
Humidity: 60%   Direction: NA
Pressure: 30.12"   Gusts: NA
Location:  34.89°N, 117.02°W
Report Text: KDAG 261550Z AUTO 00000KT 10SM BKN100 07/00 A3012 RMK AO2 SLP192 T00720000
Loading
Personal Weather Stations






























Interactive Weather Map New forecast layout! Learn more

10-Day Weather Forecast

Advertisements
Track Severe Weather on mobile